Time;durP1;ratioP1;P1;durP2;ratioP2;P2;SDS_P1;SDS_P2;PMS_P1;PMS_P2;Temp;Humidity;BMP_temperature;BMP_pressure;BME280_temperature;BME280_humidity;BME280_pressure;Samples;Min_cycle;Max_cycle;Signal;HPM_P1;HPM_P2
2022/09/25 00:02:15;;;;;;;40.92;38.33;;;;;;;6.77;100.00;101450.25;5030998;28;19921;-85
2022/09/25 00:04:43;;;;;;;44.55;41.65;;;;;;;7.01;100.00;101451.25;5032517;28;20041;-84
2022/09/25 00:07:09;;;;;;;42.65;39.70;;;;;;;7.03;100.00;101449.28;5029269;28;20455;-81
2022/09/25 00:09:36;;;;;;;43.47;40.47;;;;;;;7.07;100.00;101445.31;5029536;28;20115;-83
2022/09/25 00:12:06;;;;;;;43.33;40.60;;;;;;;6.96;100.00;101454.41;5030824;28;20123;-80
2022/09/25 00:14:35;;;;;;;39.78;37.35;;;;;;;6.99;100.00;101450.59;5025589;28;20045;-80
2022/09/25 00:17:16;;;;;;;39.65;36.97;;;;;;;7.10;100.00;101452.91;5031590;28;20136;-81
2022/09/25 00:19:52;;;;;;;39.97;37.28;;;;;;;6.95;100.00;101458.03;5026769;28;20404;-84
2022/09/25 00:22:23;;;;;;;39.20;36.40;;;;;;;6.94;100.00;101455.56;5032265;28;20041;-81
2022/09/25 00:24:50;;;;;;;40.92;37.80;;;;;;;6.97;100.00;101447.31;5026702;28;20372;-81
2022/09/25 00:27:23;;;;;;;43.05;39.92;;;;;;;6.83;100.00;101446.13;5027716;28;20053;-83
2022/09/25 00:29:54;;;;;;;40.88;38.08;;;;;;;6.83;100.00;101443.47;5031695;28;20073;-83
2022/09/25 00:32:21;;;;;;;38.95;36.20;;;;;;;6.84;100.00;101435.41;5029336;28;20141;-84
2022/09/25 00:34:48;;;;;;;41.40;38.80;;;;;;;6.36;100.00;101429.06;5029608;28;20045;-81
2022/09/25 00:37:22;;;;;;;42.10;39.08;;;;;;;6.11;100.00;101433.44;5031864;28;20048;-84
2022/09/25 00:40:01;;;;;;;40.85;38.05;;;;;;;6.50;100.00;101437.31;5027154;28;20046;-80
2022/09/25 00:42:43;;;;;;;;;;;;;;;;;;;;;
2022/09/25 00:45:19;;;;;;;39.15;36.53;;;;;;;6.30;100.00;101427.06;5030562;28;20068;-83
2022/09/25 00:48:01;;;;;;;39.10;36.38;;;;;;;6.62;100.00;101431.56;5024730;28;20058;-82
2022/09/25 00:50:48;;;;;;;38.67;35.47;;;;;;;6.37;100.00;101429.88;5030432;28;20053;-84
2022/09/25 00:53:30;;;;;;;42.55;39.78;;;;;;;6.51;100.00;101425.81;5027602;28;20115;-81
2022/09/25 00:56:03;;;;;;;42.42;39.40;;;;;;;6.60;100.00;101417.72;5028941;28;20052;-81
2022/09/25 00:58:38;;;;;;;42.22;39.40;;;;;;;6.51;100.00;101421.34;5030471;28;20072;-84
2022/09/25 01:01:09;;;;;;;41.30;38.38;;;;;;;6.41;100.00;101429.41;5032255;28;20053;-83
2022/09/25 01:03:45;;;;;;;41.08;38.08;;;;;;;6.49;100.00;101423.31;5034000;28;20107;-81
2022/09/25 01:06:19;;;;;;;38.75;36.15;;;;;;;6.41;100.00;101428.56;5026821;28;20049;-81
2022/09/25 01:08:46;;;;;;;37.40;35.00;;;;;;;6.28;100.00;101421.09;5034908;28;20041;-83
2022/09/25 01:11:13;;;;;;;40.42;37.83;;;;;;;6.13;100.00;101415.63;5032649;28;20045;-83
2022/09/25 01:13:45;;;;;;;40.92;38.13;;;;;;;6.26;100.00;101412.53;5030860;28;20525;-81
2022/09/25 01:16:23;;;;;;;47.13;44.28;;;;;;;6.23;100.00;101418.13;5030580;28;20481;-85
2022/09/25 01:19:13;;;;;;;42.30;39.33;;;;;;;6.26;100.00;101401.16;5033007;28;20121;-80
2022/09/25 01:21:46;;;;;;;38.63;36.13;;;;;;;6.07;100.00;101412.78;5027641;28;20140;-82
2022/09/25 01:24:42;;;;;;;41.15;38.58;;;;;;;5.96;100.00;101406.84;5034231;28;20498;-84
2022/09/25 01:27:51;;;;;;;;;;;;;;;;;;;;;
2022/09/25 01:30:25;;;;;;;38.95;36.28;;;;;;;5.66;100.00;101407.31;5027151;28;20054;-84
2022/09/25 01:33:00;;;;;;;46.53;43.63;;;;;;;5.62;100.00;101405.97;5034669;28;20045;-82
2022/09/25 01:35:48;;;;;;;40.00;37.58;;;;;;;5.53;100.00;101406.91;5035551;28;20045;-84
2022/09/25 01:38:26;;;;;;;40.75;38.30;;;;;;;5.73;100.00;101414.44;5033789;28;20470;-81
2022/09/25 01:41:02;;;;;;;39.78;37.28;;;;;;;5.74;100.00;101408.16;5022606;28;20050;-85
2022/09/25 01:43:37;;;;;;;41.17;38.50;;;;;;;5.21;100.00;101400.47;5034495;28;20061;-80
2022/09/25 01:46:15;;;;;;;44.63;41.33;;;;;;;5.15;100.00;101399.25;5032730;28;20122;-81
2022/09/25 01:48:51;;;;;;;38.53;35.90;;;;;;;5.10;100.00;101401.50;5031491;28;20045;-80
2022/09/25 01:51:27;;;;;;;37.97;35.35;;;;;;;4.92;100.00;101405.97;5033834;28;20075;-81
2022/09/25 01:54:03;;;;;;;39.90;37.22;;;;;;;5.48;100.00;101402.94;5029886;28;20060;-85
2022/09/25 01:56:39;;;;;;;35.83;33.55;;;;;;;5.67;100.00;101395.78;5032129;28;20042;-83
2022/09/25 01:59:17;;;;;;;35.67;33.38;;;;;;;5.30;100.00;101401.34;5028236;28;20367;-84
2022/09/25 02:02:04;;;;;;;40.05;37.38;;;;;;;5.30;100.00;101399.53;5135781;23;20049;-82
2022/09/25 02:11:04;;;;;;;42.88;40.28;;;;;;;5.54;100.00;101414.66;5008064;28;20045;-81
2022/09/25 02:14:00;;;;;;;37.03;34.63;;;;;;;5.21;100.00;101411.81;5008850;28;20085;-84
2022/09/25 02:17:13;;;;;;;;;;;;;;;;;;;;;
2022/09/25 02:23:30;;;;;;;38.35;35.42;;;;;;;4.88;100.00;101399.38;5014170;28;20053;-84
2022/09/25 02:26:20;;;;;;;34.88;32.53;;;;;;;4.64;100.00;101416.59;5014794;28;20049;-81
2022/09/25 02:29:05;;;;;;;37.92;35.50;;;;;;;5.00;100.00;101398.97;5010842;28;20053;-83
2022/09/25 02:31:45;;;;;;;39.67;36.90;;;;;;;4.96;100.00;101412.59;5011235;28;20061;-82
2022/09/25 02:34:17;;;;;;;35.92;33.53;;;;;;;4.96;100.00;101400.28;5012573;28;20402;-82
2022/09/25 02:40:22;;;;;;;;;;;;;;;;;;;;;
2022/09/25 02:43:10;;;;;;;38.13;35.63;;;;;;;4.68;100.00;101396.06;5005603;28;20057;-83
2022/09/25 02:45:55;;;;;;;39.85;37.25;;;;;;;4.47;100.00;101397.19;5014842;28;20118;-84
2022/09/25 02:49:08;;;;;;;38.35;35.65;;;;;;;4.67;100.00;101400.50;5014832;28;20064;-83
2022/09/25 02:52:13;;;;;;;38.15;35.75;;;;;;;4.95;100.00;101401.22;4955798;28;20133;-85
2022/09/25 02:55:11;;;;;;;33.83;31.52;;;;;;;4.43;100.00;101392.38;5000173;28;20537;-81
2022/09/25 02:58:09;;;;;;;37.45;35.03;;;;;;;4.73;100.00;101396.44;5005659;28;20569;-84
2022/09/25 03:00:38;;;;;;;42.03;39.33;;;;;;;4.92;100.00;101398.09;5012060;28;20053;-84
2022/09/25 03:03:08;;;;;;;38.72;36.33;;;;;;;4.70;100.00;101407.28;5014311;28;20053;-83
2022/09/25 03:05:36;;;;;;;40.65;37.83;;;;;;;4.83;100.00;101407.72;5013119;28;20046;-82
2022/09/25 03:10:49;;;;;;;37.85;35.45;;;;;;;4.75;100.00;101412.91;5013342;28;20076;-81
2022/09/25 03:13:18;;;;;;;36.88;34.38;;;;;;;4.62;100.00;101412.47;5013035;28;20123;-84
2022/09/25 03:15:50;;;;;;;35.65;33.20;;;;;;;4.65;100.00;101414.78;5012586;28;20509;-82
2022/09/25 03:18:17;;;;;;;40.20;37.50;;;;;;;4.82;100.00;101414.78;5014056;28;20407;-83
2022/09/25 03:20:44;;;;;;;33.92;31.63;;;;;;;4.58;100.00;101411.94;5013307;28;20054;-81
2022/09/25 03:23:13;;;;;;;35.40;32.90;;;;;;;4.73;100.00;101412.25;5014332;28;20402;-81
2022/09/25 03:25:39;;;;;;;38.53;36.03;;;;;;;4.68;100.00;101411.84;5013825;28;20046;-81
2022/09/25 03:28:10;;;;;;;39.20;36.55;;;;;;;4.61;100.00;101403.75;5013261;28;20453;-81
2022/09/25 03:30:39;;;;;;;39.03;36.53;;;;;;;4.72;100.00;101403.53;5012403;28;20045;-84
2022/09/25 03:33:18;;;;;;;35.00;32.78;;;;;;;4.23;100.00;101412.69;5011706;28;20069;-83
2022/09/25 03:35:48;;;;;;;35.00;32.70;;;;;;;4.11;100.00;101412.94;5011876;28;20054;-82
2022/09/25 03:38:16;;;;;;;39.78;37.22;;;;;;;4.57;100.00;101412.91;5013722;28;20085;-83
2022/09/25 03:40:43;;;;;;;37.92;35.42;;;;;;;4.33;100.00;101414.31;5013921;28;20084;-82
2022/09/25 03:43:10;;;;;;;35.92;33.13;;;;;;;4.38;100.00;101421.75;5014373;28;20045;-81
2022/09/25 03:45:36;;;;;;;34.58;32.10;;;;;;;4.06;100.00;101419.59;5014638;28;20050;-84
2022/09/25 03:48:03;;;;;;;36.08;33.75;;;;;;;4.41;100.00;101424.09;5014343;28;20046;-83
2022/09/25 03:50:30;;;;;;;38.60;36.10;;;;;;;4.34;100.00;101428.28;5014031;28;20046;-84
2022/09/25 03:52:57;;;;;;;38.03;35.35;;;;;;;4.22;100.00;101424.22;5014308;28;20082;-84
2022/09/25 03:55:25;;;;;;;39.78;36.88;;;;;;;4.48;100.00;101422.53;5014157;28;20050;-80
2022/09/25 03:57:52;;;;;;;35.80;33.10;;;;;;;4.07;100.00;101429.94;5014122;28;20141;-84
2022/09/25 04:00:18;;;;;;;39.97;37.05;;;;;;;4.31;100.00;101428.59;5014208;28;20119;-81
2022/09/25 04:02:45;;;;;;;33.67;31.13;;;;;;;3.92;100.00;101434.03;5014200;28;20050;-83
2022/09/25 04:05:12;;;;;;;35.50;32.67;;;;;;;4.33;100.00;101431.91;5014359;28;20119;-84
2022/09/25 04:07:39;;;;;;;35.67;32.85;;;;;;;4.45;100.00;101428.09;5014042;28;20054;-83
2022/09/25 04:10:07;;;;;;;36.60;33.80;;;;;;;4.57;100.00;101432.16;5013606;28;20453;-82
2022/09/25 04:12:35;;;;;;;37.15;34.03;;;;;;;3.98;100.00;101435.25;5011693;28;20054;-80
2022/09/25 04:15:02;;;;;;;35.38;32.95;;;;;;;3.76;100.00;101441.72;5010044;28;20042;-80
2022/09/25 04:17:29;;;;;;;40.13;37.33;;;;;;;4.41;100.00;101441.66;5009832;28;21160;-84
2022/09/25 04:19:57;;;;;;;34.75;32.45;;;;;;;4.50;100.00;101433.72;5015281;28;20178;-84
2022/09/25 04:22:26;;;;;;;35.40;32.92;;;;;;;4.56;100.00;101434.94;5019989;28;20123;-81
2022/09/25 04:24:54;;;;;;;35.88;33.38;;;;;;;4.56;100.00;101434.94;5011364;28;20042;-81
2022/09/25 04:27:23;;;;;;;34.42;32.08;;;;;;;4.61;100.00;101434.50;5021608;28;20128;-81
2022/09/25 04:29:51;;;;;;;35.00;32.50;;;;;;;4.60;100.00;101433.66;5010582;28;20116;-83
2022/09/25 04:35:06;;;;;;;38.55;35.60;;;;;;;4.94;100.00;101439.09;5006528;28;20045;-85
2022/09/25 04:37:34;;;;;;;41.33;38.17;;;;;;;5.09;100.00;101442.00;5011484;28;20453;-85
2022/09/25 04:40:03;;;;;;;36.45;33.90;;;;;;;5.39;100.00;101434.66;5008570;28;20119;-84
2022/09/25 04:42:30;;;;;;;35.97;33.30;;;;;;;5.37;100.00;101423.44;5010881;28;20050;-83
2022/09/25 04:44:59;;;;;;;35.95;33.55;;;;;;;5.45;100.00;101413.78;5012354;28;20517;-84
2022/09/25 04:47:28;;;;;;;39.15;36.53;;;;;;;5.77;100.00;101408.84;5004788;28;20117;-84
2022/09/25 04:49:57;;;;;;;41.65;38.75;;;;;;;6.06;100.00;101419.06;5008042;28;20052;-83
2022/09/25 04:52:27;;;;;;;39.78;36.90;;;;;;;6.14;100.00;101413.81;5009080;28;20057;-82
2022/09/25 04:54:55;;;;;;;41.75;39.08;;;;;;;6.18;100.00;101413.34;5006177;28;20537;-80
2022/09/25 04:57:24;;;;;;;41.10;38.20;;;;;;;6.41;100.00;101412.72;5010945;28;20157;-83
2022/09/25 04:59:51;;;;;;;38.85;36.28;;;;;;;6.44;100.00;101407.13;5017645;28;20050;-81
2022/09/25 05:02:26;;;;;;;43.20;40.20;;;;;;;6.42;100.00;101425.78;5012811;28;20116;-82
2022/09/25 05:04:54;;;;;;;43.42;40.58;;;;;;;6.35;100.00;101422.09;5011161;28;20056;-81
2022/09/25 05:07:22;;;;;;;41.33;38.63;;;;;;;6.53;100.00;101421.16;5008372;28;20046;-83
2022/09/25 05:09:50;;;;;;;42.65;39.92;;;;;;;6.72;100.00;101412.97;5010312;28;20062;-82
2022/09/25 05:12:16;;;;;;;42.00;39.30;;;;;;;6.97;100.00;101419.06;5012481;28;20045;-84
2022/09/25 05:14:43;;;;;;;41.08;37.97;;;;;;;7.11;100.00;101410.50;5010735;28;20111;-81
2022/09/25 05:17:10;;;;;;;39.22;36.33;;;;;;;7.08;100.00;101424.03;5009126;28;20050;-83
2022/09/25 05:19:39;;;;;;;41.85;39.00;;;;;;;7.10;100.00;101427.31;5011141;28;20045;-80
2022/09/25 05:22:06;;;;;;;38.22;35.78;;;;;;;7.57;100.00;101415.22;5011413;28;20046;-82
2022/09/25 05:24:34;;;;;;;38.95;36.28;;;;;;;7.94;100.00;101411.94;5013715;28;20632;-81
2022/09/25 05:27:02;;;;;;;36.38;33.90;;;;;;;7.97;100.00;101414.25;5009335;28;20053;-84
2022/09/25 05:29:30;;;;;;;36.42;33.38;;;;;;;7.93;100.00;101422.72;5010066;28;20120;-81
2022/09/25 05:31:59;;;;;;;35.03;32.72;;;;;;;8.11;100.00;101433.88;5010410;28;20134;-86
2022/09/25 05:34:28;;;;;;;38.60;35.85;;;;;;;8.23;100.00;101423.75;5010072;28;20108;-82
2022/09/25 05:36:56;;;;;;;38.50;35.90;;;;;;;8.43;100.00;101419.66;5008252;28;20123;-82
2022/09/25 05:39:23;;;;;;;38.20;35.67;;;;;;;8.49;100.00;101421.63;5011936;28;20094;-84
2022/09/25 05:41:50;;;;;;;39.20;36.70;;;;;;;8.69;100.00;101411.41;5012393;28;20482;-83
2022/09/25 05:44:20;;;;;;;38.47;35.95;;;;;;;8.91;100.00;101411.56;5012230;28;20050;-82
2022/09/25 05:46:46;;;;;;;37.70;35.20;;;;;;;9.04;100.00;101410.97;5013451;28;20057;-82
2022/09/25 05:49:14;;;;;;;39.70;37.00;;;;;;;8.97;100.00;101407.38;5015517;28;20112;-81
2022/09/25 05:51:42;;;;;;;44.63;40.92;;;;;;;9.21;100.00;101403.69;5013836;28;20052;-80
2022/09/25 05:54:11;;;;;;;39.03;36.00;;;;;;;9.59;100.00;101407.09;5007727;28;20387;-82
2022/09/25 05:56:37;;;;;;;42.15;39.08;;;;;;;9.79;100.00;101394.13;5017115;28;20132;-83
2022/09/25 05:59:04;;;;;;;38.00;35.40;;;;;;;9.71;100.00;101400.34;5012489;28;20449;-82
2022/09/25 06:01:31;;;;;;;38.10;35.65;;;;;;;10.03;100.00;101404.44;5015380;28;20049;-84
2022/09/25 06:04:00;;;;;;;36.72;34.42;;;;;;;10.35;100.00;101407.72;5016729;28;20050;-84
2022/09/25 06:06:30;;;;;;;40.78;38.08;;;;;;;10.46;100.00;101401.88;5019866;28;20092;-82
2022/09/25 06:08:57;;;;;;;39.85;37.22;;;;;;;10.58;100.00;101404.88;5015996;28;20104;-81
2022/09/25 06:11:29;;;;;;;33.42;31.23;;;;;;;10.73;100.00;101397.66;5014605;28;20046;-81
2022/09/25 06:13:56;;;;;;;34.53;32.13;;;;;;;10.07;100.00;101395.09;5016260;28;20081;-83
2022/09/25 06:16:26;;;;;;;34.40;31.90;;;;;;;11.06;100.00;101399.78;5015128;28;20067;-84
2022/09/25 06:18:55;;;;;;;33.78;31.40;;;;;;;11.33;100.00;101397.34;5015492;28;20046;-83
2022/09/25 06:21:21;;;;;;;33.75;31.55;;;;;;;11.64;100.00;101399.56;5016124;28;20053;-83
2022/09/25 06:23:50;;;;;;;34.33;32.05;;;;;;;11.89;100.00;101402.59;5016547;28;20080;-83
2022/09/25 06:26:19;;;;;;;34.45;31.95;;;;;;;11.83;100.00;101400.69;5015670;28;20045;-83
2022/09/25 06:28:47;;;;;;;34.47;32.10;;;;;;;12.00;100.00;101398.56;5017146;28;20137;-81
2022/09/25 06:31:16;;;;;;;35.72;32.95;;;;;;;12.28;100.00;101395.78;5016688;28;20111;-80
2022/09/25 06:33:45;;;;;;;35.47;32.97;;;;;;;12.43;100.00;101401.75;5015458;28;20458;-82
2022/09/25 06:36:13;;;;;;;38.45;35.65;;;;;;;12.61;100.00;101387.84;5014997;28;20090;-85
2022/09/25 06:38:48;;;;;;;37.88;35.17;;;;;;;12.84;100.00;101393.63;5015437;28;20045;-88
2022/09/25 06:41:23;;;;;;;34.88;32.47;;;;;;;12.46;100.00;101393.34;5003477;28;20046;-87
2022/09/25 06:43:52;;;;;;;36.03;33.72;;;;;;;13.43;100.00;101399.97;5017147;28;20116;-83
2022/09/25 06:46:19;;;;;;;34.65;32.35;;;;;;;13.77;100.00;101403.41;5015546;28;20545;-81
2022/09/25 06:48:53;;;;;;;34.13;31.88;;;;;;;13.87;100.00;101401.09;5015742;28;20109;-81
2022/09/25 06:51:35;;;;;;;36.33;34.03;;;;;;;13.74;100.00;101398.50;5013520;28;20490;-83
2022/09/25 06:54:02;;;;;;;;;;;;;;;14.00;100.00;101405.56;5018642;28;20072;-86
2022/09/25 06:56:35;;;;;;;35.05;32.75;;;;;;;14.61;100.00;101394.41;5020563;28;20381;-86
2022/09/25 06:59:14;;;;;;;36.97;34.58;;;;;;;15.08;100.00;101396.72;5016077;28;20053;-86
2022/09/25 07:01:40;;;;;;;35.80;33.40;;;;;;;15.39;100.00;101397.66;5014910;28;20050;-83
2022/09/25 07:04:07;;;;;;;35.08;32.90;;;;;;;15.79;100.00;101398.91;5017519;28;20054;-83
2022/09/25 07:06:36;;;;;;;33.40;31.17;;;;;;;16.11;100.00;101403.25;5015356;28;20388;-84
2022/09/25 07:09:03;;;;;;;35.95;33.75;;;;;;;16.40;100.00;101404.28;5016062;28;20077;-83
2022/09/25 07:11:31;;;;;;;33.63;31.33;;;;;;;16.57;100.00;101405.28;5015884;28;20054;-84
2022/09/25 07:14:04;;;;;;;34.15;31.95;;;;;;;16.66;100.00;101414.66;5013425;28;20437;-83
2022/09/25 07:16:44;;;;;;;36.85;34.35;;;;;;;17.43;100.00;101419.22;5017402;28;20062;-82
2022/09/25 07:19:11;;;;;;;36.78;34.33;;;;;;;17.15;100.00;101418.00;5015623;28;20116;-83
2022/09/25 07:21:38;;;;;;;35.05;32.47;;;;;;;17.59;100.00;101412.31;5018986;28;20045;-86
2022/09/25 07:24:06;;;;;;;33.83;31.65;;;;;;;17.50;100.00;101416.41;5016700;28;20049;-84
2022/09/25 07:26:33;;;;;;;34.95;32.75;;;;;;;18.03;100.00;101410.84;5013381;28;20428;-83
2022/09/25 07:29:03;;;;;;;38.63;35.80;;;;;;;18.69;100.00;101405.84;5012028;28;20307;-85
2022/09/25 07:31:31;;;;;;;40.63;38.00;;;;;;;18.53;91.53;101398.56;5015927;28;20119;-83
2022/09/25 07:34:04;;;;;;;45.95;42.45;;;;;;;18.98;96.24;101395.84;5013576;28;20052;-83
2022/09/25 07:36:31;;;;;;;46.80;43.40;;;;;;;18.85;93.47;101390.81;5013385;28;20456;-83
2022/09/25 07:38:58;;;;;;;50.70;46.53;;;;;;;19.20;77.78;101387.03;5011978;28;20046;-83
2022/09/25 07:41:32;;;;;;;36.28;33.65;;;;;;;19.84;79.88;101384.66;5014366;28;20108;-84
2022/09/25 07:44:01;;;;;;;36.10;33.58;;;;;;;19.11;70.55;101383.94;5014068;28;20045;-84
2022/09/25 07:46:33;;;;;;;35.13;32.72;;;;;;;17.42;85.74;101379.16;5011077;28;20053;-84
2022/09/25 07:49:02;;;;;;;38.10;35.20;;;;;;;19.11;78.80;101381.25;5015563;28;20045;-84
2022/09/25 07:51:30;;;;;;;35.28;32.90;;;;;;;20.03;67.28;101377.09;5010467;28;20394;-84
2022/09/25 07:53:59;;;;;;;34.55;32.17;;;;;;;20.66;64.00;101376.63;5009960;28;20049;-87
2022/09/25 07:56:27;;;;;;;34.92;32.38;;;;;;;20.63;63.79;101359.06;5012593;28;20053;-83
2022/09/25 07:58:55;;;;;;;35.55;33.15;;;;;;;20.47;64.50;101373.47;5007053;28;20042;-84
2022/09/25 08:01:22;;;;;;;35.42;33.00;;;;;;;21.15;59.10;101362.94;5009472;28;20062;-85
2022/09/25 08:03:49;;;;;;;35.50;33.00;;;;;;;21.71;59.93;101353.25;5012735;28;20441;-86
2022/09/25 08:06:17;;;;;;;35.90;33.35;;;;;;;21.78;55.80;101353.00;5012603;28;20457;-84
2022/09/25 08:08:44;;;;;;;35.38;32.97;;;;;;;22.06;51.85;101349.03;5014089;28;20045;-83
2022/09/25 08:11:12;;;;;;;34.38;32.17;;;;;;;22.36;49.84;101348.28;5013379;28;20107;-83
2022/09/25 08:13:40;;;;;;;35.67;33.28;;;;;;;22.55;50.61;101347.75;5013689;28;20112;-83
2022/09/25 08:16:11;;;;;;;35.03;32.53;;;;;;;22.21;50.25;101348.28;5013453;28;20395;-83
2022/09/25 08:18:45;;;;;;;35.35;33.05;;;;;;;22.88;52.98;101348.28;5011036;28;20069;-87
2022/09/25 08:21:15;;;;;;;36.60;34.03;;;;;;;22.80;48.95;101338.81;5004175;28;20057;-87
2022/09/25 08:23:45;;;;;;;35.42;33.03;;;;;;;22.85;43.84;101342.31;5014493;28;20112;-86
2022/09/25 08:26:12;;;;;;;35.03;32.63;;;;;;;23.20;43.89;101327.09;5013076;28;20057;-87
2022/09/25 08:28:38;;;;;;;35.92;33.53;;;;;;;23.42;45.32;101331.34;5009787;28;20138;-87
2022/09/25 08:31:07;;;;;;;34.60;32.20;;;;;;;23.29;44.04;101325.44;5022532;28;20053;-86
2022/09/25 08:33:36;;;;;;;33.65;31.35;;;;;;;23.43;40.89;101331.09;5010682;28;20052;-84
2022/09/25 08:36:05;;;;;;;34.10;31.70;;;;;;;22.69;45.21;101331.75;5010534;28;20064;-84
2022/09/25 08:38:34;;;;;;;36.20;33.90;;;;;;;22.16;50.01;101334.72;5010364;28;20049;-87
2022/09/25 08:41:10;;;;;;;33.45;31.25;;;;;;;23.22;47.86;101324.94;5012121;28;20465;-85
2022/09/25 08:43:44;;;;;;;36.22;33.47;;;;;;;23.80;44.12;101320.91;5018416;28;20045;-84
2022/09/25 08:49:10;;;;;;;34.30;32.10;;;;;;;23.61;44.74;101310.69;5010806;28;20053;-85
2022/09/25 08:51:44;;;;;;;35.33;32.45;;;;;;;24.52;42.65;101313.09;5013267;28;20054;-85
2022/09/25 08:54:16;;;;;;;34.58;32.35;;;;;;;24.17;44.21;101314.97;5013302;28;20049;-86
2022/09/25 08:56:44;;;;;;;;;;;;;;;24.52;48.70;101310.38;5013526;28;20532;-83
2022/09/25 08:59:22;;;;;;;34.78;32.28;;;;;;;23.61;51.99;101307.16;5012928;28;19925;-85
2022/09/25 09:01:54;;;;;;;35.83;33.40;;;;;;;23.45;53.38;101300.97;5011253;28;20049;-87
2022/09/25 09:04:25;;;;;;;;;;;;;;;24.88;50.89;101300.78;5013385;28;20093;-84
2022/09/25 09:07:05;;;;;;;38.35;35.65;;;;;;;24.55;46.57;101304.38;5008478;28;19921;-87
2022/09/25 09:09:39;;;;;;;35.58;33.17;;;;;;;24.57;48.24;101300.28;5011861;28;20200;-83
2022/09/25 09:12:13;;;;;;;37.67;34.88;;;;;;;23.36;50.89;101294.50;5012935;28;20049;-83
2022/09/25 09:14:45;;;;;;;36.30;33.70;;;;;;;22.46;51.93;101292.56;5014217;28;20045;-83
2022/09/25 09:17:40;;;;;;;36.25;33.65;;;;;;;22.79;55.29;101293.88;5013861;28;20057;-87
2022/09/25 09:20:15;;;;;;;36.45;33.75;;;;;;;25.29;59.08;101283.22;5017582;28;20116;-85
2022/09/25 09:22:48;;;;;;;37.95;35.15;;;;;;;25.46;51.73;101289.00;5016275;28;20112;-85
2022/09/25 09:25:27;;;;;;;35.28;32.88;;;;;;;23.90;49.04;101291.00;5015706;28;20125;-85
2022/09/25 09:28:43;;;;;;;36.13;33.63;;;;;;;23.30;57.25;101277.50;5014852;28;20497;-86
2022/09/25 09:31:29;;;;;;;35.63;33.15;;;;;;;24.15;48.90;101266.41;4964478;28;20098;-86
2022/09/25 09:34:07;;;;;;;36.78;34.03;;;;;;;23.54;51.50;101267.59;5000740;28;20115;-85
2022/09/25 09:36:43;;;;;;;34.75;32.33;;;;;;;23.81;49.84;101265.56;5015903;28;20041;-87
2022/09/25 09:39:16;;;;;;;35.10;32.45;;;;;;;23.77;55.05;101249.84;5016546;28;20050;-85
2022/09/25 09:41:57;;;;;;;35.63;32.92;;;;;;;24.33;54.56;101243.19;5014910;28;20050;-85
2022/09/25 09:44:51;;;;;;;36.10;33.53;;;;;;;25.26;49.42;101249.28;5015510;28;20481;-85
2022/09/25 09:47:38;;;;;;;39.15;36.15;;;;;;;25.81;46.36;101246.91;5015438;28;20111;-87
2022/09/25 09:50:20;;;;;;;36.50;33.97;;;;;;;24.00;50.96;101261.91;5011443;28;20141;-86
2022/09/25 09:52:51;;;;;;;35.33;32.58;;;;;;;23.59;49.41;101263.25;5014804;28;20132;-85
2022/09/25 09:55:24;;;;;;;37.20;34.60;;;;;;;24.41;50.19;101249.91;5016496;28;20108;-83
2022/09/25 09:57:53;;;;;;;37.35;34.95;;;;;;;25.41;43.60;101252.91;5013386;28;20107;-85
2022/09/25 10:00:22;;;;;;;35.50;32.80;;;;;;;25.75;50.56;101247.22;5016576;28;20135;-83
2022/09/25 10:02:56;;;;;;;34.88;32.47;;;;;;;25.62;43.64;101245.25;5018666;28;20050;-88
2022/09/25 10:05:26;;;;;;;35.05;32.53;;;;;;;26.50;45.29;101236.22;5017236;28;20050;-89
2022/09/25 10:08:05;;;;;;;34.60;31.65;;;;;;;27.13;46.17;101229.28;5013353;28;20042;-84
2022/09/25 10:10:36;;;;;;;37.78;35.00;;;;;;;27.09;43.28;101222.03;5009720;28;20124;-84
2022/09/25 10:13:11;;;;;;;38.23;35.33;;;;;;;27.44;42.30;101223.19;5016558;28;20056;-83
2022/09/25 10:15:44;;;;;;;36.63;33.97;;;;;;;27.83;44.09;101219.84;5009449;28;20046;-87
2022/09/25 10:18:15;;;;;;;36.67;34.08;;;;;;;27.55;41.25;101210.94;5016258;28;20046;-82
2022/09/25 10:20:46;;;;;;;34.67;32.28;;;;;;;27.76;39.93;101213.19;5015840;28;20054;-83
2022/09/25 10:23:36;;;;;;;47.38;44.35;;;;;;;28.28;39.56;101206.13;5015813;28;20073;-81
2022/09/25 10:26:03;;;;;;;47.53;44.33;;;;;;;27.54;38.99;101212.06;5015540;28;20136;-86
2022/09/25 10:28:33;;;;;;;46.70;43.85;;;;;;;28.37;38.28;101198.00;5016474;28;20133;-82
2022/09/25 10:31:07;;;;;;;49.22;45.83;;;;;;;28.19;41.16;101186.16;5013471;28;20046;-87
2022/09/25 10:33:37;;;;;;;46.97;44.08;;;;;;;29.30;34.69;101179.81;5011772;28;20054;-85
2022/09/25 10:36:10;;;;;;;46.28;43.30;;;;;;;27.83;38.26;101189.00;5020263;28;20489;-85
2022/09/25 10:38:43;;;;;;;46.65;43.50;;;;;;;28.51;35.07;101176.06;5016882;28;20045;-84
2022/09/25 10:41:12;;;;;;;45.28;42.17;;;;;;;28.74;34.84;101179.50;5021872;28;20088;-82
2022/09/25 10:43:54;;;;;;;48.08;45.13;;;;;;;28.69;34.31;101180.47;5021749;28;20104;-84
2022/09/25 10:52:18;;;;;;;50.55;47.42;;;;;;;24.73;34.93;101173.31;5017857;28;20120;-87
2022/09/25 10:54:46;;;;;;;49.13;46.17;;;;;;;25.67;33.92;101169.84;5013899;28;20545;-84
2022/09/25 10:57:33;;;;;;;46.42;43.60;;;;;;;28.20;30.22;101165.13;5015848;28;20060;-87
2022/09/25 11:00:02;;;;;;;46.72;43.72;;;;;;;28.07;32.80;101170.38;5019431;28;20050;-83
2022/09/25 11:02:36;;;;;;;47.22;44.13;;;;;;;28.70;32.93;101162.16;5008150;28;20054;-83
2022/09/25 11:05:08;;;;;;;48.20;45.10;;;;;;;29.40;32.53;101166.59;5016280;28;20065;-83
2022/09/25 11:07:35;;;;;;;45.70;42.80;;;;;;;29.08;33.36;101156.13;5015499;28;20103;-83
2022/09/25 11:10:19;;;;;;;48.55;45.35;;;;;;;29.30;34.82;101146.97;5015706;28;20054;-85
2022/09/25 11:12:46;;;;;;;47.38;44.13;;;;;;;28.58;29.18;101146.34;5019945;28;20069;-82
2022/09/25 11:15:18;;;;;;;46.88;43.88;;;;;;;27.70;30.61;101159.84;5015408;28;20072;-83
2022/09/25 11:17:46;;;;;;;48.50;45.55;;;;;;;29.37;32.43;101147.28;5025791;28;20075;-81
2022/09/25 11:20:28;;;;;;;51.97;48.72;;;;;;;28.98;29.66;101146.28;5017273;28;20548;-81
2022/09/25 11:23:05;;;;;;;44.30;41.22;;;;;;;28.85;33.36;101139.03;5016141;28;20045;-86
2022/09/25 11:25:40;;;;;;;46.92;43.97;;;;;;;28.77;33.22;101140.59;5002176;28;20131;-83
2022/09/25 11:28:14;;;;;;;47.40;44.33;;;;;;;27.53;34.19;101136.78;5013796;28;20124;-83
2022/09/25 11:30:50;;;;;;;45.05;41.90;;;;;;;28.89;35.25;101131.78;5014590;28;20540;-83
2022/09/25 11:33:27;;;;;;;45.60;42.60;;;;;;;27.71;34.63;101124.06;5014641;28;20046;-81
2022/09/25 11:36:02;;;;;;;54.53;51.22;;;;;;;27.89;35.69;101133.19;5013429;28;20046;-82
2022/09/25 11:41:40;;;;;;;46.58;43.67;;;;;;;27.08;34.18;101131.28;5012138;28;20080;-85
2022/09/25 11:44:19;;;;;;;36.78;34.08;;;;;;;28.80;35.67;101120.03;5008529;28;20050;-83
2022/09/25 11:46:55;;;;;;;36.67;33.97;;;;;;;29.04;32.82;101114.94;5014961;28;20053;-85
2022/09/25 11:49:27;;;;;;;41.25;38.55;;;;;;;26.51;33.38;101114.50;5014745;28;20062;-86
2022/09/25 11:52:31;;;;;;;41.72;38.83;;;;;;;29.39;33.04;101115.75;5014631;28;20187;-84
2022/09/25 11:55:33;;;;;;;36.95;34.25;;;;;;;27.94;31.96;101122.13;5014939;28;20050;-82
2022/09/25 11:58:13;;;;;;;36.75;34.05;;;;;;;30.18;31.93;101118.31;5009756;28;20155;-83
2022/09/25 12:00:59;;;;;;;36.72;34.20;;;;;;;30.83;29.18;101111.53;5012841;28;20049;-83
2022/09/25 12:03:42;;;;;;;45.53;42.58;;;;;;;29.38;29.39;101107.84;5011015;28;20376;-86
2022/09/25 12:06:29;;;;;;;34.17;31.58;;;;;;;30.49;30.61;101105.13;5014953;28;20116;-84
2022/09/25 12:09:19;;;;;;;36.10;33.80;;;;;;;29.52;29.65;101105.75;5005341;28;20060;-86
2022/09/25 12:12:08;;;;;;;36.65;34.28;;;;;;;28.99;29.30;101102.22;5010343;28;20053;-84
2022/09/25 12:14:45;;;;;;;34.65;32.17;;;;;;;28.98;31.82;101097.88;5012045;28;20119;-84